createdAt,value
2022-10-04T00:02:26.235Z,7.07
2022-10-04T00:06:27.785Z,6.25
2022-10-04T00:10:30.775Z,5.70
2022-10-04T00:14:36.590Z,6.22
2022-10-04T00:18:39.298Z,6.13
2022-10-04T00:23:19.573Z,6.05
2022-10-04T00:27:25.851Z,6.18
2022-10-04T00:31:29.318Z,6.43
2022-10-04T00:35:30.828Z,6.88
2022-10-04T00:39:32.731Z,5.78
2022-10-04T00:43:43.939Z,6.60
2022-10-04T00:47:48.422Z,6.00
2022-10-04T00:52:13.535Z,6.88
2022-10-04T00:56:21.073Z,6.55
2022-10-04T01:00:22.802Z,6.15
2022-10-04T01:04:52.375Z,6.35
2022-10-04T01:08:56.503Z,6.30
2022-10-04T01:13:08.007Z,6.35
2022-10-04T01:17:10.041Z,7.68
2022-10-04T01:21:27.146Z,6.25
2022-10-04T01:25:44.869Z,6.97
2022-10-04T01:33:48.128Z,7.13
2022-10-04T01:37:49.667Z,5.93
2022-10-04T01:42:08.699Z,5.93
2022-10-04T01:46:21.869Z,7.10
2022-10-04T01:50:41.818Z,8.00
2022-10-04T01:54:46.675Z,7.72
2022-10-04T01:58:50.233Z,8.18
2022-10-04T02:03:01.587Z,7.05
2022-10-04T02:07:04.752Z,7.05
2022-10-04T02:11:06.909Z,6.38
2022-10-04T02:15:09.103Z,7.53
2022-10-04T02:19:11.042Z,7.55
2022-10-04T02:23:13.228Z,7.18
2022-10-04T02:27:15.220Z,6.85
2022-10-04T02:31:40.745Z,5.65
2022-10-04T02:35:46.783Z,6.85
2022-10-04T02:40:03.647Z,6.60
2022-10-04T02:44:15.750Z,6.60
2022-10-04T02:48:22.447Z,6.85
2022-10-04T02:52:42.604Z,6.82
2022-10-04T02:56:44.763Z,6.10
2022-10-04T03:00:49.561Z,6.82
2022-10-04T03:04:52.326Z,6.22
2022-10-04T03:08:58.215Z,7.45
2022-10-04T03:12:59.667Z,7.30
2022-10-04T03:17:04.005Z,6.45
2022-10-04T03:21:08.243Z,6.05
2022-10-04T03:25:16.317Z,7.00
2022-10-04T03:29:19.779Z,7.65
2022-10-04T03:33:25.730Z,6.50
2022-10-04T03:37:29.748Z,6.93
2022-10-04T03:41:31.210Z,6.70
2022-10-04T03:45:35.254Z,6.68
2022-10-04T03:49:38.029Z,5.95
2022-10-04T03:53:45.606Z,7.50
2022-10-04T03:57:47.163Z,5.90
2022-10-04T04:01:56.977Z,6.03
2022-10-04T04:06:00.383Z,6.93
2022-10-04T04:10:07.145Z,6.82
2022-10-04T04:14:21.362Z,7.97
2022-10-04T04:18:24.575Z,8.30
2022-10-04T04:22:31.711Z,7.95
2022-10-04T04:26:44.924Z,8.63
2022-10-04T04:30:48.567Z,7.82
2022-10-04T04:34:53.456Z,7.60
2022-10-04T04:39:26.093Z,7.35
2022-10-04T04:43:27.790Z,6.63
2022-10-04T04:47:40.735Z,6.85
2022-10-04T04:51:48.139Z,8.65
2022-10-04T04:56:03.750Z,7.57
2022-10-04T05:00:06.667Z,7.55
2022-10-04T05:04:14.349Z,7.03
2022-10-04T05:08:22.944Z,6.40
2022-10-04T05:12:24.453Z,8.05
2022-10-04T05:16:36.936Z,6.55
2022-10-04T05:20:38.954Z,6.10
2022-10-04T05:24:43.664Z,6.45
2022-10-04T05:28:45.091Z,6.80
2022-10-04T05:33:09.561Z,6.10
2022-10-04T05:37:34.814Z,6.47
2022-10-04T05:41:56.971Z,6.88
2022-10-04T05:46:14.536Z,6.18
2022-10-04T05:54:38.125Z,6.20
2022-10-04T05:59:07.363Z,7.20
2022-10-04T06:03:24.210Z,6.80
2022-10-04T06:07:30.700Z,7.13
2022-10-04T06:11:50.966Z,8.35
2022-10-04T06:16:17.640Z,8.50
2022-10-04T06:20:25.550Z,8.83
2022-10-04T06:24:36.044Z,7.68
2022-10-04T06:28:42.458Z,9.30
2022-10-04T06:33:06.787Z,8.52
2022-10-04T06:37:32.623Z,8.20
2022-10-04T06:41:48.360Z,8.73
2022-10-04T06:45:59.903Z,8.85
2022-10-04T06:50:28.946Z,8.88
2022-10-04T06:55:00.743Z,8.23
2022-10-04T06:59:33.433Z,8.40
2022-10-04T07:03:54.647Z,8.65
2022-10-04T07:08:32.729Z,8.25
2022-10-04T07:12:35.314Z,8.57
2022-10-04T07:16:57.681Z,8.30
2022-10-04T07:21:05.472Z,8.00
2022-10-04T07:29:23.562Z,7.68
2022-10-04T07:33:28.068Z,8.20
2022-10-04T07:37:32.451Z,7.47
2022-10-04T07:41:46.567Z,7.95
2022-10-04T07:45:49.090Z,7.78
2022-10-04T07:49:50.845Z,7.90
2022-10-04T07:54:10.613Z,6.85
2022-10-04T07:58:51.891Z,8.23
2022-10-04T08:03:36.413Z,7.65
2022-10-04T08:07:53.083Z,7.13
2022-10-04T08:12:59.624Z,8.60
2022-10-04T08:17:15.376Z,9.30
2022-10-04T08:21:24.071Z,9.93
2022-10-04T08:25:38.091Z,9.02
2022-10-04T08:29:44.348Z,10.85
2022-10-04T08:33:59.978Z,9.07
2022-10-04T08:38:16.973Z,7.95
2022-10-04T08:42:43.207Z,7.70
2022-10-04T08:46:59.324Z,7.57
2022-10-04T08:51:15.846Z,6.60
2022-10-04T08:55:55.142Z,6.70
2022-10-04T09:00:09.791Z,4.90
2022-10-04T09:04:30.291Z,5.38
2022-10-04T09:09:02.928Z,4.30
2022-10-04T09:13:38.731Z,4.30
2022-10-04T09:17:53.724Z,4.68
2022-10-04T09:22:13.490Z,4.40
2022-10-04T09:26:24.737Z,3.58
2022-10-04T09:30:53.823Z,3.60
2022-10-04T09:35:10.615Z,4.90
2022-10-04T09:39:35.825Z,3.83
2022-10-04T09:44:22.875Z,3.28
2022-10-04T09:48:45.968Z,3.22
2022-10-04T09:52:55.537Z,3.92
2022-10-04T09:57:08.866Z,3.47
2022-10-04T10:01:18.632Z,3.08
2022-10-04T10:05:55.699Z,3.15
2022-10-04T10:10:22.856Z,4.65
2022-10-04T10:14:54.616Z,3.65
2022-10-04T10:19:13.060Z,3.50
2022-10-04T10:23:25.027Z,3.15
2022-10-04T10:28:04.651Z,3.10
2022-10-04T10:32:37.422Z,3.65
2022-10-04T10:36:58.544Z,2.85
2022-10-04T10:41:31.456Z,3.42
2022-10-04T10:45:48.248Z,2.88
2022-10-04T10:50:11.498Z,3.57
2022-10-04T10:54:50.674Z,4.55
2022-10-04T10:59:01.913Z,4.72
2022-10-04T11:03:23.212Z,3.25
2022-10-04T11:07:50.865Z,2.85
2022-10-04T11:12:07.287Z,2.53
2022-10-04T11:16:35.635Z,2.85
2022-10-04T11:20:59.398Z,2.17
2022-10-04T11:25:35.203Z,3.42
2022-10-04T11:30:11.575Z,2.33
2022-10-04T11:34:41.475Z,1.92
2022-10-04T11:38:56.706Z,2.30
2022-10-04T11:43:36.039Z,2.20
2022-10-04T11:48:03.038Z,2.42
2022-10-04T11:52:16.415Z,2.28
2022-10-04T11:56:29.944Z,2.10
2022-10-04T12:01:05.728Z,2.13
2022-10-04T12:05:16.238Z,2.15
2022-10-04T12:09:41.912Z,2.60
2022-10-04T12:14:01.677Z,2.53
2022-10-04T12:18:34.490Z,2.15
2022-10-04T12:22:38.896Z,1.98
2022-10-04T12:27:02.806Z,2.30
2022-10-04T12:31:23.106Z,2.22
2022-10-04T12:35:45.642Z,2.22
2022-10-04T12:39:59.586Z,1.88
2022-10-04T12:44:21.924Z,2.63
2022-10-04T12:48:38.976Z,1.88
2022-10-04T12:52:59.231Z,2.58
2022-10-04T12:57:06.533Z,1.75
2022-10-04T13:01:20.428Z,1.88
2022-10-04T13:05:41.984Z,1.75
2022-10-04T13:10:22.635Z,3.55
2022-10-04T13:14:24.065Z,2.90
2022-10-04T13:18:37.273Z,2.42
2022-10-04T13:22:58.058Z,3.60
2022-10-04T13:27:07.613Z,4.68
2022-10-04T13:31:21.820Z,4.28
2022-10-04T13:36:01.303Z,2.55
2022-10-04T13:40:22.822Z,3.10
2022-10-04T13:44:47.452Z,3.30
2022-10-04T13:49:01.344Z,3.28
2022-10-04T13:53:27.652Z,4.15
2022-10-04T13:58:05.497Z,3.78
2022-10-04T14:02:39.455Z,3.60
2022-10-04T14:07:38.294Z,4.55
2022-10-04T14:12:03.229Z,3.28
2022-10-04T14:16:34.071Z,2.92
2022-10-04T14:21:19.158Z,2.90
2022-10-04T14:25:47.162Z,3.63
2022-10-04T14:34:15.432Z,2.60
2022-10-04T14:38:27.135Z,2.40
2022-10-04T14:42:46.092Z,3.75
2022-10-04T14:46:52.798Z,3.33
2022-10-04T14:51:13.015Z,2.97
2022-10-04T14:55:52.164Z,3.35
2022-10-04T14:59:56.628Z,3.25
2022-10-04T15:04:25.622Z,2.50
2022-10-04T15:08:53.484Z,2.25
2022-10-04T15:13:11.896Z,2.45
2022-10-04T15:17:27.789Z,2.33
2022-10-04T15:21:52.382Z,2.90
2022-10-04T15:25:57.314Z,2.28
2022-10-04T15:30:24.374Z,2.90
2022-10-04T15:34:48.810Z,2.70
2022-10-04T15:39:02.370Z,2.47
2022-10-04T15:43:25.009Z,2.90
2022-10-04T15:47:50.214Z,2.78
2022-10-04T15:52:09.879Z,3.28
2022-10-04T15:56:40.384Z,2.00
2022-10-04T16:00:45.395Z,2.50
2022-10-04T16:05:21.484Z,2.58
2022-10-04T16:09:28.565Z,3.40
2022-10-04T16:13:57.392Z,2.80
2022-10-04T16:18:13.828Z,2.90
2022-10-04T16:22:34.785Z,2.88
2022-10-04T16:26:36.456Z,2.63
2022-10-04T16:30:41.623Z,2.85
2022-10-04T16:34:45.177Z,2.95
2022-10-04T16:39:13.478Z,2.50
2022-10-04T16:43:17.992Z,2.95
2022-10-04T16:47:39.596Z,2.88
2022-10-04T16:52:28.556Z,2.33
2022-10-04T16:56:50.968Z,2.80
2022-10-04T17:01:23.369Z,3.13
2022-10-04T17:05:40.132Z,2.92
2022-10-04T17:09:49.875Z,3.63
2022-10-04T17:13:58.082Z,3.20
2022-10-04T17:18:08.577Z,4.88
2022-10-04T17:22:28.974Z,4.95
2022-10-04T17:26:57.709Z,4.53
2022-10-04T17:31:12.170Z,4.97
2022-10-04T17:35:44.365Z,4.60
2022-10-04T17:39:53.570Z,5.57
2022-10-04T17:44:41.015Z,4.60
2022-10-04T17:49:05.535Z,4.90
2022-10-04T17:53:33.223Z,4.65
2022-10-04T18:01:43.008Z,4.18
2022-10-04T18:10:23.754Z,4.43
2022-10-04T18:14:29.028Z,4.70
2022-10-04T18:18:38.388Z,5.05
2022-10-04T18:22:49.072Z,4.78
2022-10-04T18:27:14.609Z,4.55
2022-10-04T18:31:39.611Z,4.93
2022-10-04T18:36:13.906Z,4.65
2022-10-04T18:40:24.666Z,4.78
2022-10-04T18:44:59.294Z,5.20
2022-10-04T18:49:15.453Z,13.18
2022-10-04T18:53:42.341Z,39.60
2022-10-04T18:58:14.171Z,35.07
2022-10-04T19:02:37.208Z,33.30
2022-10-04T19:06:39.382Z,29.67
2022-10-04T19:10:45.252Z,27.58
2022-10-04T19:14:55.511Z,24.23
2022-10-04T19:19:02.690Z,20.50
2022-10-04T19:23:26.178Z,17.23
2022-10-04T19:27:30.548Z,12.48
2022-10-04T19:31:41.514Z,10.48
2022-10-04T19:36:16.176Z,8.75
2022-10-04T19:40:23.542Z,7.38
2022-10-04T19:44:43.225Z,7.53
2022-10-04T19:48:49.991Z,6.45
2022-10-04T19:52:55.821Z,6.47
2022-10-04T19:56:58.042Z,6.45
2022-10-04T20:00:59.651Z,7.07
2022-10-04T20:05:03.084Z,6.70
2022-10-04T20:09:38.194Z,6.95
2022-10-04T20:13:40.375Z,6.68
2022-10-04T20:17:46.076Z,5.15
2022-10-04T20:21:47.611Z,5.20
2022-10-04T20:25:49.587Z,5.90
2022-10-04T20:29:54.244Z,5.82
2022-10-04T20:33:56.055Z,5.07
2022-10-04T20:38:19.894Z,4.88
2022-10-04T20:42:31.793Z,4.80
2022-10-04T20:46:38.303Z,5.82
2022-10-04T20:50:42.325Z,4.53
2022-10-04T20:54:52.912Z,5.97
2022-10-04T20:58:56.190Z,5.03
2022-10-04T21:03:14.479Z,4.75
2022-10-04T21:07:26.548Z,4.38
2022-10-04T21:11:43.394Z,4.57
2022-10-04T21:15:57.115Z,4.20
2022-10-04T21:19:59.000Z,4.65
2022-10-04T21:24:46.739Z,4.10
2022-10-04T21:28:52.555Z,4.50
2022-10-04T21:32:54.189Z,4.35
2022-10-04T21:36:55.872Z,5.03
2022-10-04T21:40:57.992Z,5.90
2022-10-04T21:44:59.783Z,5.07
2022-10-04T21:49:01.407Z,5.22
2022-10-04T21:53:02.784Z,5.93
2022-10-04T21:57:04.419Z,5.60
2022-10-04T22:01:06.124Z,4.82
2022-10-04T22:05:07.965Z,5.18
2022-10-04T22:09:09.779Z,5.63
2022-10-04T22:13:11.211Z,5.13
2022-10-04T22:17:12.666Z,5.13
2022-10-04T22:21:14.291Z,5.38
2022-10-04T22:25:21.545Z,5.53
2022-10-04T22:29:23.140Z,4.75
2022-10-04T22:33:35.483Z,4.68
2022-10-04T22:37:37.268Z,3.88
2022-10-04T22:41:42.711Z,4.97
2022-10-04T22:45:44.441Z,4.47
2022-10-04T22:49:48.283Z,4.20
2022-10-04T22:53:50.027Z,4.68
2022-10-04T22:57:51.466Z,4.15
2022-10-04T23:01:54.273Z,4.00
2022-10-04T23:05:55.840Z,5.22
2022-10-04T23:09:57.298Z,4.38
2022-10-04T23:13:58.684Z,4.20
2022-10-04T23:18:00.148Z,4.38
2022-10-04T23:22:01.805Z,4.32
2022-10-04T23:26:12.952Z,4.47
2022-10-04T23:30:17.256Z,5.30
2022-10-04T23:34:27.263Z,4.00
2022-10-04T23:38:30.819Z,4.18
2022-10-04T23:42:33.579Z,4.13
2022-10-04T23:46:34.975Z,4.07
2022-10-04T23:50:37.920Z,5.93
2022-10-04T23:54:39.330Z,5.80
2022-10-04T23:58:41.783Z,5.93
